Time;durP1;ratioP1;P1;durP2;ratioP2;P2;SDS_P1;SDS_P2;PMS_P1;PMS_P2;Temp;Humidity;BMP_temperature;BMP_pressure;BME280_temperature;BME280_humidity;BME280_pressure;Samples;Min_cycle;Max_cycle;Signal;HPM_P1;HPM_P2
2021/10/10 00:00:47;;;;;;;9.80;8.90;;;;;19.50;101627.00;;;;2095772;28;20224;-55
2021/10/10 00:01:47;;;;;;;8.77;7.97;;;;;19.50;101635.00;;;;2088721;28;20678;-56
2021/10/10 00:02:48;;;;;;;8.70;8.00;;;;;19.50;101635.00;;;;2087449;28;20221;-55
2021/10/10 00:03:48;;;;;;;8.93;8.13;;;;;19.50;101627.00;;;;2087371;28;20224;-54
2021/10/10 00:04:49;;;;;;;9.93;9.13;;;;;19.50;101633.00;;;;2088027;28;20225;-55
2021/10/10 00:05:49;;;;;;;8.60;7.90;;;;;19.50;101632.00;;;;2085909;28;20221;-54
2021/10/10 00:06:49;;;;;;;9.10;8.40;;;;;19.50;101626.00;;;;2092362;28;20701;-54
2021/10/10 00:07:50;;;;;;;9.23;8.40;;;;;19.50;101632.00;;;;2096023;28;20247;-55
2021/10/10 00:08:50;;;;;;;9.23;8.43;;;;;19.50;101631.00;;;;2095663;28;20216;-54
2021/10/10 00:09:51;;;;;;;8.20;7.60;;;;;19.50;101630.00;;;;2093650;28;20228;-54
2021/10/10 00:10:51;;;;;;;9.00;8.20;;;;;19.50;101628.00;;;;2094212;28;20224;-54
2021/10/10 00:11:51;;;;;;;8.50;7.80;;;;;19.50;101631.00;;;;2095826;28;20216;-54
2021/10/10 00:12:52;;;;;;;9.07;8.27;;;;;19.50;101632.00;;;;2096003;28;20244;-55
2021/10/10 00:13:52;;;;;;;9.10;8.30;;;;;19.50;101593.00;;;;2096178;28;20231;-54
2021/10/10 00:14:53;;;;;;;8.20;7.60;;;;;19.50;101624.00;;;;2083972;28;20732;-55
2021/10/10 00:15:56;;;;;;;7.73;7.17;;;;;19.50;101630.00;;;;2090440;28;20219;-55
2021/10/10 00:16:56;;;;;;;9.05;8.35;;;;;19.50;101634.00;;;;2088605;28;20273;-54
2021/10/10 00:17:56;;;;;;;8.67;8.00;;;;;19.50;101637.00;;;;2088274;28;20299;-54
2021/10/10 00:18:57;;;;;;;8.83;8.13;;;;;19.50;101627.00;;;;2084873;28;20225;-54
2021/10/10 00:19:57;;;;;;;9.13;8.43;;;;;19.50;101626.00;;;;2087763;28;20208;-55
2021/10/10 00:20:58;;;;;;;9.40;8.57;;;;;19.50;101630.00;;;;2087959;28;20862;-54
2021/10/10 00:21:58;;;;;;;9.97;9.17;;;;;19.50;101627.00;;;;2090404;28;20292;-55
2021/10/10 00:22:58;;;;;;;9.13;8.33;;;;;19.50;101622.00;;;;2094447;28;20213;-54
2021/10/10 00:23:59;;;;;;;9.97;9.17;;;;;19.50;101626.00;;;;2092548;28;20208;-54
2021/10/10 00:24:59;;;;;;;9.20;8.40;;;;;19.50;101626.00;;;;2095996;28;20207;-55
2021/10/10 00:26:00;;;;;;;8.60;7.90;;;;;19.50;101624.00;;;;2095836;28;20288;-55
2021/10/10 00:27:01;;;;;;;8.20;7.60;;;;;19.50;101622.00;;;;2096141;28;20212;-55
2021/10/10 00:28:01;;;;;;;9.33;8.53;;;;;19.50;101626.00;;;;2095953;28;20449;-54
2021/10/10 00:29:02;;;;;;;8.60;7.90;;;;;19.50;101622.00;;;;2095368;28;20208;-54
2021/10/10 00:30:07;;;;;;;9.50;8.67;;;;;19.50;101618.00;;;;2095620;28;20889;-54
2021/10/10 00:31:08;;;;;;;9.10;8.30;;;;;19.50;101623.00;;;;2095237;28;20223;-54
2021/10/10 00:32:08;;;;;;;8.60;7.90;;;;;19.50;101623.00;;;;2095324;28;20742;-54
2021/10/10 00:33:09;;;;;;;9.17;8.47;;;;;19.50;101617.00;;;;2089769;28;20216;-54
2021/10/10 00:34:09;;;;;;;8.82;8.13;;;;;19.50;101629.00;;;;2087790;28;20781;-54
2021/10/10 00:35:10;;;;;;;8.93;8.23;;;;;19.50;101623.00;;;;2087502;28;20217;-54
2021/10/10 00:36:11;;;;;;;8.80;8.03;;;;;19.50;101626.00;;;;2087662;28;20755;-54
2021/10/10 00:37:11;;;;;;;9.30;8.60;;;;;19.50;101623.00;;;;2082722;28;21043;-55
2021/10/10 00:38:11;;;;;;;9.07;8.37;;;;;19.50;101623.00;;;;2087154;28;20300;-54
2021/10/10 00:39:13;;;;;;;8.77;8.07;;;;;19.50;101608.00;;;;2086470;28;20678;-55
2021/10/10 00:40:13;;;;;;;8.65;7.95;;;;;19.50;101627.00;;;;2093966;28;20273;-55
2021/10/10 00:41:14;;;;;;;8.60;7.90;;;;;19.50;101628.00;;;;2087736;28;20634;-55
2021/10/10 00:42:16;;;;;;;8.60;7.90;;;;;19.50;101627.00;;;;2087072;28;20303;-55
2021/10/10 00:43:16;;;;;;;8.75;8.05;;;;;19.50;101631.00;;;;2087071;28;20204;-55
2021/10/10 00:44:17;;;;;;;8.90;8.10;;;;;19.50;101624.00;;;;2087101;28;20315;-55
2021/10/10 00:45:17;;;;;;;9.30;8.60;;;;;19.50;101628.00;;;;2087006;28;20304;-55
2021/10/10 00:46:18;;;;;;;8.47;7.77;;;;;19.50;101624.00;;;;2090570;28;20225;-54
2021/10/10 00:47:18;;;;;;;9.13;8.40;;;;;19.50;101629.00;;;;2088845;28;20225;-55
2021/10/10 00:48:18;;;;;;;9.27;8.47;;;;;19.50;101629.00;;;;2087406;28;20228;-54
2021/10/10 00:49:19;;;;;;;8.20;7.60;;;;;19.50;101632.00;;;;2081513;28;20217;-55
2021/10/10 00:50:20;;;;;;;8.80;8.10;;;;;19.50;101630.00;;;;2092654;28;20224;-55
2021/10/10 00:51:20;;;;;;;8.27;7.57;;;;;19.40;101628.00;;;;2094494;28;20216;-55
2021/10/10 00:52:21;;;;;;;7.73;7.03;;;;;19.40;101621.00;;;;2093741;28;20861;-55
2021/10/10 00:53:21;;;;;;;8.53;7.83;;;;;19.40;101624.00;;;;2083622;28;20611;-55
2021/10/10 00:54:21;;;;;;;8.70;7.97;;;;;19.50;101624.00;;;;2086176;28;20231;-55
2021/10/10 00:55:22;;;;;;;8.60;7.90;;;;;19.50;101621.00;;;;2085464;28;20330;-54
2021/10/10 00:56:22;;;;;;;8.50;7.90;;;;;19.40;101618.00;;;;2081450;28;20229;-55
2021/10/10 00:57:23;;;;;;;8.53;7.83;;;;;19.50;101622.00;;;;2092590;28;20299;-55
2021/10/10 00:58:24;;;;;;;8.33;7.63;;;;;19.40;101621.00;;;;2094512;28;20601;-55
2021/10/10 00:59:25;;;;;;;8.30;7.70;;;;;19.50;101633.00;;;;2095172;28;20601;-54
2021/10/10 01:00:26;;;;;;;8.80;8.10;;;;;19.40;101624.00;;;;2094776;28;20455;-55
2021/10/10 01:01:27;;;;;;;8.55;7.93;;;;;19.50;101624.00;;;;2090709;28;20458;-55
2021/10/10 01:02:28;;;;;;;8.10;7.50;;;;;19.50;101627.00;;;;2095234;28;20879;-54
2021/10/10 01:03:28;;;;;;;9.03;8.33;;;;;19.40;101631.00;;;;2095506;28;20451;-55
2021/10/10 01:04:28;;;;;;;8.27;7.57;;;;;19.40;101629.00;;;;2089863;28;20204;-54
2021/10/10 01:05:29;;;;;;;8.43;7.73;;;;;19.40;101635.00;;;;2087336;28;20212;-54
2021/10/10 01:06:29;;;;;;;8.00;7.40;;;;;19.40;101628.00;;;;2086780;28;20742;-54
2021/10/10 01:07:30;;;;;;;7.67;7.03;;;;;19.40;101630.00;;;;2084015;28;20208;-54
2021/10/10 01:08:30;;;;;;;8.07;7.37;;;;;19.50;101629.00;;;;2087305;28;20254;-55
2021/10/10 01:09:35;;;;;;;8.33;7.67;;;;;19.50;101629.00;;;;2094968;28;20208;-55
2021/10/10 01:10:35;;;;;;;7.82;7.22;;;;;19.50;101624.00;;;;2094430;28;20212;-55
2021/10/10 01:11:35;;;;;;;8.10;7.40;;;;;19.50;101623.00;;;;2094578;28;20890;-55
2021/10/10 01:12:36;;;;;;;8.23;7.53;;;;;19.50;101634.00;;;;2088892;28;20224;-55
2021/10/10 01:13:38;;;;;;;8.50;7.80;;;;;19.40;101629.00;;;;2061528;28;20241;-54
2021/10/10 01:14:38;;;;;;;8.00;7.40;;;;;19.40;101626.00;;;;2077085;28;20239;-54
2021/10/10 01:15:40;;;;;;;8.70;8.00;;;;;19.40;101637.00;;;;2089822;28;20292;-54
2021/10/10 01:16:40;;;;;;;8.55;7.85;;;;;19.40;101625.00;;;;2090656;28;20259;-54
2021/10/10 01:17:40;;;;;;;8.80;8.00;;;;;19.40;101633.00;;;;2087505;28;20217;-55
2021/10/10 01:18:41;;;;;;;8.00;7.40;;;;;19.40;101632.00;;;;2086829;28;20209;-55
2021/10/10 01:19:41;;;;;;;8.33;7.63;;;;;19.40;101625.00;;;;2086517;28;20217;-55
2021/10/10 01:20:46;;;;;;;7.97;7.33;;;;;19.50;101633.00;;;;2086349;28;20220;-54
2021/10/10 01:21:47;;;;;;;8.40;7.65;;;;;19.50;101630.00;;;;2086643;28;20592;-54
2021/10/10 01:23:31;;;;;;;8.57;7.83;;;;;19.50;101625.00;;;;2086403;28;20216;-54
2021/10/10 01:24:32;;;;;;;8.63;7.85;;;;;19.40;101626.00;;;;2084351;28;20216;-55
2021/10/10 01:25:35;;;;;;;7.47;6.87;;;;;19.40;101628.00;;;;2086278;28;20213;-54
2021/10/10 01:26:37;;;;;;;7.55;6.95;;;;;19.50;101630.00;;;;2086829;28;20489;-54
2021/10/10 01:27:38;;;;;;;8.18;7.47;;;;;19.50;101634.00;;;;2077428;28;20783;-55
2021/10/10 01:28:38;;;;;;;8.40;7.70;;;;;19.40;101621.00;;;;2077875;28;20220;-54
2021/10/10 01:29:39;;;;;;;8.20;7.60;;;;;19.40;101629.00;;;;2086931;28;20244;-54
2021/10/10 01:30:39;;;;;;;7.90;7.27;;;;;19.40;101627.00;;;;2087346;28;20213;-55
2021/10/10 01:31:39;;;;;;;8.50;7.80;;;;;19.40;101622.00;;;;2087209;28;20219;-54
2021/10/10 01:32:40;;;;;;;8.77;7.97;;;;;19.40;101625.00;;;;2087107;28;20224;-54
2021/10/10 01:33:43;;;;;;;7.73;7.13;;;;;19.40;101630.00;;;;2086575;28;20201;-54
2021/10/10 01:34:44;;;;;;;8.20;7.60;;;;;19.40;101622.00;;;;2087176;28;20952;-55
2021/10/10 01:35:46;;;;;;;7.72;7.10;;;;;19.40;101623.00;;;;2087156;28;20275;-54
2021/10/10 01:36:46;;;;;;;7.50;6.90;;;;;19.40;101625.00;;;;2087115;28;20267;-54
2021/10/10 01:37:46;;;;;;;8.17;7.57;;;;;19.40;101619.00;;;;2087103;28;20751;-53
2021/10/10 01:38:47;;;;;;;7.37;6.77;;;;;19.40;101625.00;;;;2086546;28;20216;-54
2021/10/10 01:39:47;;;;;;;8.20;7.60;;;;;19.40;101622.00;;;;2087058;28;20216;-55
2021/10/10 01:40:48;;;;;;;7.70;7.07;;;;;19.40;101619.00;;;;2087263;28;20232;-55
2021/10/10 01:41:48;;;;;;;8.40;7.70;;;;;19.40;101629.00;;;;2087274;28;20212;-54
2021/10/10 01:42:48;;;;;;;8.17;7.47;;;;;19.40;101622.00;;;;2087300;28;20212;-54
2021/10/10 01:43:49;;;;;;;8.00;7.40;;;;;19.40;101625.00;;;;2087246;28;20307;-54
2021/10/10 01:44:49;;;;;;;7.73;7.13;;;;;19.40;101616.00;;;;2085816;28;20216;-55
2021/10/10 01:45:50;;;;;;;7.90;7.30;;;;;19.40;101609.00;;;;2083455;28;20683;-54
2021/10/10 01:46:50;;;;;;;8.03;7.40;;;;;19.40;101615.00;;;;2080025;28;20813;-54
2021/10/10 01:47:51;;;;;;;7.93;7.33;;;;;19.40;101613.00;;;;2078329;28;20220;-54
2021/10/10 01:48:51;;;;;;;8.10;7.40;;;;;19.40;101618.00;;;;2075106;28;20722;-55
2021/10/10 01:49:52;;;;;;;8.20;7.50;;;;;19.40;101620.00;;;;2074776;28;20659;-54
2021/10/10 01:50:53;;;;;;;8.00;7.40;;;;;19.40;101618.00;;;;2092339;28;21534;-54
2021/10/10 01:51:53;;;;;;;8.40;7.80;;;;;19.40;101620.00;;;;2082416;28;20852;-54
2021/10/10 01:52:54;;;;;;;7.67;7.07;;;;;19.30;101622.00;;;;2080411;28;20232;-54
2021/10/10 01:53:54;;;;;;;7.20;6.60;;;;;19.40;101620.00;;;;2083915;28;20479;-54
2021/10/10 01:54:54;;;;;;;7.80;7.20;;;;;19.40;101623.00;;;;2079732;28;20588;-54
2021/10/10 01:55:55;;;;;;;7.50;6.90;;;;;19.40;101624.00;;;;2086725;28;20992;-55
2021/10/10 01:56:55;;;;;;;8.30;7.60;;;;;19.40;101623.00;;;;2087075;28;20213;-55
2021/10/10 01:57:56;;;;;;;7.10;6.50;;;;;19.40;101621.00;;;;2087097;28;20295;-55
2021/10/10 01:58:56;;;;;;;8.70;8.00;;;;;19.40;101612.00;;;;2086963;28;20216;-54
2021/10/10 01:59:57;;;;;;;7.00;6.50;;;;;19.40;101623.00;;;;2087161;28;20271;-54
2021/10/10 02:00:58;;;;;;;7.40;6.80;;;;;19.40;101634.00;;;;2085931;28;20687;-54
2021/10/10 02:01:58;;;;;;;8.50;7.80;;;;;19.40;101625.00;;;;2087282;28;20665;-55
2021/10/10 02:03:00;;;;;;;7.30;6.70;;;;;19.40;101627.00;;;;2087229;28;20455;-54
2021/10/10 02:04:00;;;;;;;7.72;7.13;;;;;19.40;101618.00;;;;2087283;28;20212;-55
2021/10/10 02:05:00;;;;;;;7.70;7.10;;;;;19.40;101627.00;;;;2084815;28;20367;-54
2021/10/10 02:06:01;;;;;;;7.30;6.70;;;;;19.40;101618.00;;;;2084464;28;20706;-55
2021/10/10 02:07:01;;;;;;;7.40;6.80;;;;;19.40;101620.00;;;;2086089;28;20226;-53
2021/10/10 02:08:02;;;;;;;6.63;6.13;;;;;19.40;101624.00;;;;2086211;28;20232;-54
2021/10/10 02:09:02;;;;;;;7.83;7.23;;;;;19.40;101617.00;;;;2086069;28;20673;-55
2021/10/10 02:10:03;;;;;;;7.00;6.40;;;;;19.40;101618.00;;;;2087056;28;20299;-54
2021/10/10 02:11:03;;;;;;;7.88;7.15;;;;;19.40;101613.00;;;;2087037;28;20274;-54
2021/10/10 02:12:05;;;;;;;7.70;7.10;;;;;19.40;101609.00;;;;2087076;28;20221;-55
2021/10/10 02:13:05;;;;;;;7.40;6.80;;;;;19.40;101618.00;;;;2083489;28;20221;-56
2021/10/10 02:14:06;;;;;;;7.97;7.37;;;;;19.40;101614.00;;;;2087378;28;20220;-55
2021/10/10 02:15:07;;;;;;;7.30;6.70;;;;;19.40;101614.00;;;;2087035;28;20320;-55
2021/10/10 02:16:09;;;;;;;7.45;6.85;;;;;19.40;101606.00;;;;2079989;28;20536;-55
2021/10/10 02:17:09;;;;;;;7.53;6.93;;;;;19.40;101609.00;;;;2079061;28;20217;-55
2021/10/10 02:18:10;;;;;;;7.60;6.90;;;;;19.40;101605.00;;;;2079597;28;20209;-54
2021/10/10 02:19:10;;;;;;;7.90;7.10;;;;;19.40;101601.00;;;;2078663;28;20206;-54
2021/10/10 02:20:11;;;;;;;7.37;6.77;;;;;19.40;101599.00;;;;2077811;28;20286;-54
2021/10/10 02:21:11;;;;;;;7.00;6.40;;;;;19.40;101607.00;;;;2072571;28;20214;-55
2021/10/10 02:22:11;;;;;;;7.37;6.77;;;;;19.40;101603.00;;;;2078836;28;20626;-54
2021/10/10 02:23:12;;;;;;;8.37;7.67;;;;;19.40;101607.00;;;;2079044;28;20654;-54
2021/10/10 02:24:12;;;;;;;7.40;6.80;;;;;19.40;101602.00;;;;2078961;28;20202;-54
2021/10/10 02:25:12;;;;;;;7.50;6.90;;;;;19.40;101606.00;;;;2078894;28;20570;-55
2021/10/10 02:26:13;;;;;;;7.90;7.30;;;;;19.40;101600.00;;;;2083309;28;20579;-54
2021/10/10 02:27:13;;;;;;;7.50;6.90;;;;;19.40;101606.00;;;;2086877;28;20280;-54
2021/10/10 02:28:14;;;;;;;7.10;6.60;;;;;19.40;101605.00;;;;2087412;28;20292;-54
2021/10/10 02:29:15;;;;;;;7.83;7.23;;;;;19.40;101607.00;;;;2084854;28;20209;-54
2021/10/10 02:30:15;;;;;;;6.85;6.25;;;;;19.40;101600.00;;;;2078852;28;20264;-55
2021/10/10 02:31:17;;;;;;;7.20;6.63;;;;;19.40;101603.00;;;;2078990;28;20225;-54
2021/10/10 02:32:17;;;;;;;7.05;6.45;;;;;19.20;101603.00;;;;2078037;28;20624;-54
2021/10/10 02:33:17;;;;;;;7.27;6.73;;;;;19.40;101587.00;;;;2078228;28;20268;-54
2021/10/10 02:34:18;;;;;;;7.60;6.90;;;;;19.40;101598.00;;;;2087005;28;20640;-54
2021/10/10 02:35:20;;;;;;;7.55;6.90;;;;;19.40;101599.00;;;;2087109;28;20225;-55
2021/10/10 02:36:20;;;;;;;7.30;6.70;;;;;19.40;101594.00;;;;2087117;28;20243;-54
2021/10/10 02:37:21;;;;;;;7.13;6.53;;;;;19.40;101599.00;;;;2087096;28;20580;-54
2021/10/10 02:38:21;;;;;;;7.13;6.57;;;;;19.40;101596.00;;;;2084599;28;20205;-54
2021/10/10 02:39:21;;;;;;;7.27;6.67;;;;;19.40;101590.00;;;;2078516;28;20464;-54
2021/10/10 02:40:22;;;;;;;7.30;6.80;;;;;19.40;101593.00;;;;2078807;28;20210;-54
2021/10/10 02:41:22;;;;;;;7.50;7.00;;;;;19.40;101591.00;;;;2078933;28;20297;-54
2021/10/10 02:42:23;;;;;;;6.60;6.10;;;;;19.40;101596.00;;;;2079196;28;20209;-55
2021/10/10 02:43:23;;;;;;;7.23;6.73;;;;;19.40;101595.00;;;;2085016;28;20220;-54
2021/10/10 02:44:25;;;;;;;7.97;7.27;;;;;19.40;101592.00;;;;2077838;28;20364;-54
2021/10/10 02:45:26;;;;;;;7.43;6.82;;;;;19.40;101590.00;;;;2077264;28;20271;-55
2021/10/10 02:46:27;;;;;;;6.90;6.40;;;;;19.40;101589.00;;;;2088177;28;20681;-55
2021/10/10 02:47:28;;;;;;;7.60;7.00;;;;;19.40;101594.00;;;;2081767;28;20214;-54
2021/10/10 02:48:28;;;;;;;7.93;7.32;;;;;19.40;101595.00;;;;2080340;28;20451;-55
2021/10/10 02:49:29;;;;;;;6.77;6.27;;;;;19.40;101592.00;;;;2080021;28;20549;-55
2021/10/10 02:50:29;;;;;;;7.60;7.00;;;;;19.40;101587.00;;;;2083779;28;20461;-55
2021/10/10 02:51:30;;;;;;;7.10;6.60;;;;;19.40;101589.00;;;;2087983;28;20221;-55
2021/10/10 02:52:30;;;;;;;7.65;7.05;;;;;19.40;101583.00;;;;2088577;28;20307;-54
2021/10/10 02:53:31;;;;;;;7.40;6.80;;;;;19.40;101584.00;;;;2087273;28;20801;-54
2021/10/10 02:54:31;;;;;;;7.60;7.00;;;;;19.40;101591.00;;;;2088037;28;20289;-55
2021/10/10 02:55:35;;;;;;;7.13;6.53;;;;;19.40;101593.00;;;;2087932;28;20223;-54
2021/10/10 02:56:35;;;;;;;6.28;5.80;;;;;19.40;101591.00;;;;2078376;28;20221;-55
2021/10/10 02:57:37;;;;;;;7.67;6.97;;;;;19.40;101594.00;;;;2079276;28;20209;-55
2021/10/10 02:58:37;;;;;;;7.50;6.90;;;;;19.40;101594.00;;;;2080620;28;20228;-54
2021/10/10 02:59:38;;;;;;;7.00;6.50;;;;;19.40;101588.00;;;;2086457;28;20295;-55
2021/10/10 03:00:40;;;;;;;6.93;6.40;;;;;19.40;101590.00;;;;2086770;28;20208;-55
2021/10/10 03:01:40;;;;;;;7.40;6.80;;;;;19.30;101585.00;;;;2086565;28;20204;-54
2021/10/10 03:02:41;;;;;;;7.07;6.57;;;;;19.30;101590.00;;;;2081636;28;20209;-54
2021/10/10 03:03:41;;;;;;;8.07;7.37;;;;;19.40;101584.00;;;;2079847;28;20296;-54
2021/10/10 03:04:42;;;;;;;7.03;6.43;;;;;19.40;101588.00;;;;2079039;28;20218;-56
2021/10/10 03:05:43;;;;;;;7.17;6.50;;;;;19.40;101586.00;;;;2079995;28;20746;-57
2021/10/10 03:06:43;;;;;;;7.27;6.67;;;;;19.40;101585.00;;;;2079759;28;20710;-54
2021/10/10 03:07:44;;;;;;;6.80;6.30;;;;;19.40;101584.00;;;;2080952;28;20456;-55
2021/10/10 03:08:44;;;;;;;7.57;6.97;;;;;19.30;101584.00;;;;2087997;28;20296;-56
2021/10/10 03:09:44;;;;;;;6.80;6.30;;;;;19.30;101588.00;;;;2087572;28;20209;-55
2021/10/10 03:10:45;;;;;;;7.30;6.70;;;;;19.40;101579.00;;;;2087929;28;21039;-55
2021/10/10 03:11:45;;;;;;;6.43;6.03;;;;;19.40;101585.00;;;;2086319;28;20278;-56
2021/10/10 03:12:45;;;;;;;7.33;6.73;;;;;19.40;101583.00;;;;2088054;28;20717;-55
2021/10/10 03:13:46;;;;;;;7.23;6.63;;;;;19.30;101581.00;;;;2087639;28;20231;-56
2021/10/10 03:14:46;;;;;;;7.20;6.60;;;;;19.40;101586.00;;;;2087051;28;20220;-56
2021/10/10 03:15:47;;;;;;;6.97;6.47;;;;;19.40;101588.00;;;;2082507;28;20217;-55
2021/10/10 03:16:47;;;;;;;6.93;6.43;;;;;19.40;101583.00;;;;2080221;28;20206;-56
2021/10/10 03:17:48;;;;;;;7.67;7.07;;;;;19.40;101579.00;;;;2079956;28;20312;-55
2021/10/10 03:18:49;;;;;;;7.47;6.87;;;;;19.30;101581.00;;;;2079624;28;20217;-55
2021/10/10 03:19:49;;;;;;;7.30;6.70;;;;;19.30;101577.00;;;;2077421;28;20308;-54
2021/10/10 03:20:50;;;;;;;7.83;7.23;;;;;19.40;101577.00;;;;2082721;28;20718;-55
2021/10/10 03:21:50;;;;;;;7.10;6.50;;;;;19.40;101574.00;;;;2087937;28;20593;-55
2021/10/10 03:22:51;;;;;;;7.33;6.73;;;;;19.40;101569.00;;;;2087896;28;20213;-55
2021/10/10 03:23:52;;;;;;;6.73;6.23;;;;;19.30;101574.00;;;;2086253;28;20304;-55
2021/10/10 03:24:53;;;;;;;6.68;6.18;;;;;19.30;101570.00;;;;2081062;28;20468;-54
2021/10/10 03:25:53;;;;;;;6.63;6.13;;;;;19.40;101571.00;;;;2088677;28;20244;-54
2021/10/10 03:26:54;;;;;;;6.77;6.27;;;;;19.30;101571.00;;;;2087719;28;20459;-54
2021/10/10 03:27:55;;;;;;;7.80;7.20;;;;;19.30;101574.00;;;;2081575;28;20248;-55
2021/10/10 03:28:55;;;;;;;7.25;6.65;;;;;19.30;101576.00;;;;2079771;28;20328;-55
2021/10/10 03:29:56;;;;;;;7.53;6.93;;;;;19.30;101574.00;;;;2080181;28;20217;-54
2021/10/10 03:30:58;;;;;;;6.78;6.28;;;;;19.30;101577.00;;;;2084358;28;20922;-55
2021/10/10 03:31:58;;;;;;;6.93;6.43;;;;;19.30;101567.00;;;;2088202;28;20205;-55
2021/10/10 03:32:58;;;;;;;7.27;6.67;;;;;19.30;101572.00;;;;2088297;28;20217;-55
2021/10/10 03:33:59;;;;;;;7.23;6.63;;;;;19.30;101573.00;;;;2085001;28;20724;-55
2021/10/10 03:34:59;;;;;;;6.90;6.40;;;;;19.30;101571.00;;;;2073669;28;20644;-55
2021/10/10 03:36:00;;;;;;;6.77;6.27;;;;;19.30;101565.00;;;;2080323;28;20216;-55
2021/10/10 03:37:00;;;;;;;7.57;6.97;;;;;19.30;101571.00;;;;2080000;28;20206;-55
2021/10/10 03:38:02;;;;;;;7.65;7.05;;;;;19.30;101570.00;;;;2078630;28;20209;-54
2021/10/10 03:39:02;;;;;;;7.40;6.80;;;;;19.30;101563.00;;;;2083967;28;20626;-54
2021/10/10 03:40:07;;;;;;;6.80;6.30;;;;;19.30;101565.00;;;;2088138;28;20285;-55
2021/10/10 03:41:08;;;;;;;7.50;6.90;;;;;19.30;101570.00;;;;2088116;28;20501;-55
2021/10/10 03:42:08;;;;;;;7.10;6.50;;;;;19.30;101565.00;;;;2088085;28;20270;-54
2021/10/10 03:43:09;;;;;;;7.20;6.60;;;;;19.30;101562.00;;;;2085258;28;20213;-54
2021/10/10 03:44:09;;;;;;;7.50;6.90;;;;;19.30;101567.00;;;;2080008;28;20229;-54
2021/10/10 03:45:09;;;;;;;6.57;6.07;;;;;19.30;101569.00;;;;2079926;28;20214;-55
2021/10/10 03:46:10;;;;;;;6.80;6.30;;;;;19.30;101571.00;;;;2080208;28;20205;-54
2021/10/10 03:47:13;;;;;;;8.05;7.38;;;;;19.30;101567.00;;;;2079562;28;20220;-55
2021/10/10 03:48:14;;;;;;;6.85;6.35;;;;;19.30;101565.00;;;;2078949;28;20213;-54
2021/10/10 03:49:14;;;;;;;7.63;7.03;;;;;19.30;101561.00;;;;2079618;28;20300;-55
2021/10/10 03:50:14;;;;;;;7.50;6.90;;;;;19.30;101564.00;;;;2079962;28;20213;-54
2021/10/10 03:51:15;;;;;;;6.10;5.60;;;;;19.30;101567.00;;;;2079864;28;20461;-55
2021/10/10 03:52:15;;;;;;;6.60;6.10;;;;;19.30;101569.00;;;;2079925;28;20248;-54
2021/10/10 03:53:16;;;;;;;7.00;6.50;;;;;19.30;101568.00;;;;2073450;28;20290;-55
2021/10/10 03:56:19;;;;;;;7.33;6.83;;;;;19.30;101569.00;;;;2079345;28;20221;-55
2021/10/10 03:57:24;;;;;;;7.60;7.00;;;;;19.30;101546.00;;;;2079688;28;20303;-56
2021/10/10 03:58:24;;;;;;;6.70;6.20;;;;;19.30;101556.00;;;;2086131;28;20213;-55
2021/10/10 03:59:26;;;;;;;6.67;6.13;;;;;19.30;101561.00;;;;2085794;28;20628;-54
2021/10/10 04:00:28;;;;;;;6.97;6.47;;;;;19.30;101560.00;;;;2087085;28;20216;-55
2021/10/10 04:01:29;;;;;;;6.95;6.45;;;;;19.30;101558.00;;;;2086647;28;20205;-54
2021/10/10 04:02:30;;;;;;;7.20;6.60;;;;;19.30;101552.00;;;;2079164;28;20221;-55
2021/10/10 04:03:30;;;;;;;7.60;7.00;;;;;19.30;101553.00;;;;2079543;28;20221;-55
2021/10/10 04:04:34;;;;;;;6.63;6.13;;;;;19.30;101547.00;;;;2079133;28;20292;-55
2021/10/10 04:06:36;;;;;;;7.23;6.63;;;;;19.30;101554.00;;;;2079652;28;20240;-55
2021/10/10 04:07:37;;;;;;;6.60;6.10;;;;;19.30;101553.00;;;;2081509;28;20221;-55
2021/10/10 04:08:43;;;;;;;6.63;6.13;;;;;19.30;101554.00;;;;2086502;28;20211;-55
2021/10/10 04:09:43;;;;;;;6.97;6.45;;;;;19.30;101549.00;;;;2085094;28;20231;-55
2021/10/10 04:10:44;;;;;;;7.47;6.87;;;;;19.30;101548.00;;;;2086956;28;20289;-54
2021/10/10 04:11:44;;;;;;;7.37;6.77;;;;;19.30;101553.00;;;;2082028;28;20229;-54
2021/10/10 04:12:45;;;;;;;7.53;6.93;;;;;19.30;101552.00;;;;2079318;28;20329;-54
2021/10/10 04:13:45;;;;;;;7.60;7.00;;;;;19.30;101550.00;;;;2079299;28;20229;-55
2021/10/10 04:14:45;;;;;;;7.37;6.77;;;;;19.30;101550.00;;;;2079553;28;20225;-55
2021/10/10 04:15:46;;;;;;;7.00;6.50;;;;;19.30;101542.00;;;;2082909;28;20316;-54
2021/10/10 04:16:46;;;;;;;7.50;6.90;;;;;19.30;101561.00;;;;2079618;28;20788;-55
2021/10/10 04:17:49;;;;;;;6.20;5.70;;;;;19.30;101549.00;;;;2081710;28;20753;-54
2021/10/10 04:18:50;;;;;;;6.20;5.70;;;;;19.30;101551.00;;;;2080075;28;20225;-55
2021/10/10 04:19:50;;;;;;;6.57;5.97;;;;;19.30;101547.00;;;;2075628;28;20699;-55
2021/10/10 04:20:50;;;;;;;7.17;6.50;;;;;19.30;101548.00;;;;2079686;28;20965;-54
2021/10/10 04:21:51;;;;;;;6.30;5.80;;;;;19.30;101544.00;;;;2083750;28;20681;-55
2021/10/10 04:22:51;;;;;;;6.47;5.97;;;;;19.30;101546.00;;;;2087933;28;20223;-54
2021/10/10 04:23:51;;;;;;;6.87;6.27;;;;;19.30;101547.00;;;;2088008;28;20229;-54
2021/10/10 04:24:52;;;;;;;6.80;6.30;;;;;19.30;101551.00;;;;2087115;28;20300;-54
2021/10/10 04:25:52;;;;;;;6.13;5.63;;;;;19.30;101552.00;;;;2087194;28;20220;-55
2021/10/10 04:26:53;;;;;;;6.87;6.37;;;;;19.30;101555.00;;;;2087439;28;20213;-55
2021/10/10 04:27:53;;;;;;;6.27;5.77;;;;;19.30;101554.00;;;;2087401;28;20213;-56
2021/10/10 04:28:54;;;;;;;6.90;6.30;;;;;19.30;101546.00;;;;2087069;28;20681;-56
2021/10/10 04:29:54;;;;;;;6.53;6.03;;;;;19.30;101545.00;;;;2087851;28;20213;-56
2021/10/10 04:30:55;;;;;;;6.47;5.97;;;;;19.30;101553.00;;;;2079248;28;20283;-56
2021/10/10 04:31:55;;;;;;;6.93;6.33;;;;;19.30;101558.00;;;;2079232;28;20228;-54
2021/10/10 04:32:56;;;;;;;7.10;6.43;;;;;19.30;101552.00;;;;2079424;28;20222;-55
2021/10/10 04:33:56;;;;;;;6.90;6.40;;;;;19.30;101551.00;;;;2085153;28;20634;-55
2021/10/10 04:34:56;;;;;;;6.50;5.90;;;;;19.30;101552.00;;;;2087644;28;20445;-54
2021/10/10 04:35:57;;;;;;;7.40;6.90;;;;;19.30;101551.00;;;;2087778;28;20307;-55
2021/10/10 04:36:57;;;;;;;7.30;6.70;;;;;19.30;101550.00;;;;2087680;28;20216;-54
2021/10/10 04:37:57;;;;;;;7.03;6.47;;;;;19.30;101549.00;;;;2087763;28;20263;-55
2021/10/10 04:38:58;;;;;;;7.77;7.07;;;;;19.30;101551.00;;;;2087268;28;20267;-54
2021/10/10 04:40:00;;;;;;;6.97;6.47;;;;;19.30;101550.00;;;;2087992;28;20755;-54
2021/10/10 04:41:01;;;;;;;6.90;6.40;;;;;19.30;101549.00;;;;2081731;28;20225;-54
2021/10/10 04:42:01;;;;;;;7.53;6.90;;;;;19.30;101551.00;;;;2078810;28;20296;-55
2021/10/10 04:43:11;;;;;;;6.50;6.00;;;;;19.30;101548.00;;;;2078454;28;20220;-55
2021/10/10 04:44:11;;;;;;;6.93;6.40;;;;;19.30;101545.00;;;;2079490;28;20296;-54
2021/10/10 04:45:11;;;;;;;6.17;5.60;;;;;19.30;101545.00;;;;2087213;28;20302;-54
2021/10/10 04:46:12;;;;;;;7.43;6.73;;;;;19.30;101542.00;;;;2084879;28;20205;-54
2021/10/10 04:47:12;;;;;;;6.70;6.20;;;;;19.30;101544.00;;;;2082373;28;20682;-55
2021/10/10 04:48:13;;;;;;;5.90;5.50;;;;;19.30;101545.00;;;;2083468;28;20572;-54
2021/10/10 04:49:13;;;;;;;6.93;6.17;;;;;19.30;101543.00;;;;2078987;28;20224;-55
2021/10/10 04:50:13;;;;;;;6.27;5.77;;;;;19.30;101543.00;;;;2079450;28;20228;-54
2021/10/10 04:51:15;;;;;;;6.70;6.10;;;;;19.30;101543.00;;;;2079313;28;20213;-55
2021/10/10 04:52:16;;;;;;;6.53;6.03;;;;;19.30;101539.00;;;;2078547;28;20209;-54
2021/10/10 04:53:16;;;;;;;7.10;6.60;;;;;19.30;101545.00;;;;2078680;28;20227;-54
2021/10/10 04:54:17;;;;;;;6.43;5.87;;;;;19.30;101541.00;;;;2080138;28;20213;-55
2021/10/10 04:55:17;;;;;;;6.70;6.20;;;;;19.30;101540.00;;;;2087615;28;20216;-55
2021/10/10 04:56:19;;;;;;;6.63;6.13;;;;;19.30;101535.00;;;;2087508;28;20237;-54
2021/10/10 04:57:20;;;;;;;5.95;5.45;;;;;19.30;101536.00;;;;2080003;28;20279;-54
2021/10/10 04:58:21;;;;;;;6.23;5.73;;;;;19.30;101538.00;;;;2078019;28;20687;-54
2021/10/10 04:59:21;;;;;;;6.40;5.90;;;;;19.30;101541.00;;;;2080942;28;20216;-54
2021/10/10 05:00:22;;;;;;;6.40;5.90;;;;;19.30;101533.00;;;;2087628;28;20201;-54
2021/10/10 05:01:22;;;;;;;6.07;5.67;;;;;19.30;101543.00;;;;2086407;28;20287;-54
2021/10/10 05:02:23;;;;;;;6.70;6.20;;;;;19.30;101548.00;;;;2086813;28;20209;-54
2021/10/10 05:03:24;;;;;;;7.37;6.77;;;;;19.30;101538.00;;;;2079303;28;20217;-54
2021/10/10 05:04:25;;;;;;;7.17;6.67;;;;;19.20;101537.00;;;;2078103;28;20510;-55